createdAt,value
2023-05-04T00:00:28.919Z,27.6
2023-05-04T00:01:30.823Z,27.6
2023-05-04T00:02:32.912Z,27.5
2023-05-04T00:03:35.355Z,27.6
2023-05-04T00:04:37.906Z,27.6
2023-05-04T00:05:40.001Z,27.6
2023-05-04T00:06:41.859Z,27.6
2023-05-04T00:07:43.699Z,27.5
2023-05-04T00:08:45.549Z,27.6
2023-05-04T00:09:47.422Z,27.6
2023-05-04T00:10:49.196Z,27.6
2023-05-04T00:11:51.108Z,27.6
2023-05-04T00:12:52.981Z,27.5
2023-05-04T00:13:54.765Z,27.6
2023-05-04T00:14:56.444Z,27.5
2023-05-04T00:15:58.344Z,27.6
2023-05-04T00:17:00.581Z,27.6
2023-05-04T00:18:02.432Z,27.6
2023-05-04T00:19:04.275Z,27.7
2023-05-04T00:20:06.757Z,27.6
2023-05-04T00:21:08.994Z,27.6
2023-05-04T00:22:10.831Z,27.7
2023-05-04T00:23:12.688Z,27.7
2023-05-04T00:24:14.545Z,27.7
2023-05-04T00:25:16.173Z,27.6
2023-05-04T00:26:18.041Z,27.6
2023-05-04T00:27:19.870Z,27.6
2023-05-04T00:28:24.314Z,27.6
2023-05-04T00:29:26.235Z,27.6
2023-05-04T00:30:28.084Z,27.6
2023-05-04T00:31:29.849Z,27.7
2023-05-04T00:32:31.864Z,27.7
2023-05-04T00:33:33.842Z,27.7
2023-05-04T00:34:35.624Z,27.7
2023-05-04T00:35:37.437Z,27.7
2023-05-04T00:36:39.300Z,27.7
2023-05-04T00:37:41.257Z,27.6
2023-05-04T00:38:43.100Z,27.6
2023-05-04T00:39:44.947Z,27.6
2023-05-04T00:40:46.663Z,27.8
2023-05-04T00:41:48.440Z,27.8
2023-05-04T00:42:53.151Z,27.7
2023-05-04T00:43:55.004Z,27.7
2023-05-04T00:44:57.066Z,27.8
2023-05-04T00:45:58.918Z,27.7
2023-05-04T00:47:01.062Z,27.7
2023-05-04T00:48:03.369Z,27.7
2023-05-04T00:49:05.483Z,27.6
2023-05-04T00:50:07.536Z,27.7
2023-05-04T00:51:09.708Z,27.7
2023-05-04T00:52:11.618Z,27.7
2023-05-04T00:53:13.501Z,27.7
2023-05-04T00:54:15.353Z,27.7
2023-05-04T00:55:17.184Z,27.7
2023-05-04T00:56:18.950Z,27.7
2023-05-04T00:57:20.909Z,27.7
2023-05-04T00:58:22.754Z,27.7
2023-05-04T00:59:24.564Z,27.7
2023-05-04T01:00:26.445Z,27.7
2023-05-04T01:01:28.379Z,27.8
2023-05-04T01:02:30.571Z,27.7
2023-05-04T01:03:32.768Z,27.7
2023-05-04T01:04:34.775Z,27.7
2023-05-04T01:05:36.614Z,27.8
2023-05-04T01:06:38.471Z,27.8
2023-05-04T01:07:40.214Z,27.7
2023-05-04T01:08:42.079Z,27.7
2023-05-04T01:09:43.823Z,27.8
2023-05-04T01:10:45.674Z,27.7
2023-05-04T01:11:47.418Z,27.7
2023-05-04T01:12:49.380Z,27.7
2023-05-04T01:13:51.399Z,27.7
2023-05-04T01:14:53.374Z,27.7
2023-05-04T01:15:55.220Z,27.8
2023-05-04T01:16:57.081Z,27.9
2023-05-04T01:17:58.952Z,27.8
2023-05-04T01:19:01.012Z,27.8
2023-05-04T01:20:03.156Z,27.8
2023-05-04T01:21:05.807Z,27.8
2023-05-04T01:22:07.666Z,27.8
2023-05-04T01:23:09.523Z,27.8
2023-05-04T01:24:11.361Z,27.9
2023-05-04T01:25:13.214Z,27.8
2023-05-04T01:26:15.058Z,27.8
2023-05-04T01:27:16.768Z,27.9
2023-05-04T01:28:18.379Z,27.9
2023-05-04T01:29:20.092Z,27.9
2023-05-04T01:30:21.944Z,27.8
2023-05-04T01:31:23.978Z,27.8
2023-05-04T01:32:26.167Z,27.8
2023-05-04T01:33:28.005Z,27.8
2023-05-04T01:34:30.035Z,27.8
2023-05-04T01:35:31.911Z,27.8
2023-05-04T01:36:33.753Z,27.8
2023-05-04T01:37:35.324Z,27.8
2023-05-04T01:38:36.944Z,27.8
2023-05-04T01:39:38.899Z,27.8
2023-05-04T01:40:40.635Z,27.8
2023-05-04T01:41:42.381Z,27.9
2023-05-04T01:42:44.030Z,27.9
2023-05-04T01:43:45.893Z,27.9
2023-05-04T01:44:47.842Z,27.8
2023-05-04T01:45:49.806Z,27.8
2023-05-04T01:46:51.840Z,27.8
2023-05-04T01:47:53.796Z,27.8
2023-05-04T01:48:55.861Z,27.8
2023-05-04T01:49:57.731Z,27.8
2023-05-04T01:50:59.664Z,27.8
2023-05-04T01:52:01.511Z,27.8
2023-05-04T01:53:03.359Z,27.8
2023-05-04T01:54:05.213Z,27.9
2023-05-04T01:55:07.011Z,27.9
2023-05-04T01:56:08.694Z,27.9
2023-05-04T01:57:10.548Z,27.9
2023-05-04T01:58:12.369Z,27.9
2023-05-04T01:59:14.360Z,27.9
2023-05-04T02:00:16.309Z,27.9
2023-05-04T02:01:18.283Z,27.8
2023-05-04T02:02:20.319Z,27.8
2023-05-04T02:03:22.465Z,27.8
2023-05-04T02:04:24.741Z,27.8
2023-05-04T02:05:26.736Z,27.8
2023-05-04T02:06:28.529Z,27.8
2023-05-04T02:07:30.380Z,27.8
2023-05-04T02:08:32.333Z,27.8
2023-05-04T02:09:34.185Z,27.7
2023-05-04T02:10:36.030Z,27.7
2023-05-04T02:11:37.888Z,27.7
2023-05-04T02:12:39.858Z,27.7
2023-05-04T02:13:41.788Z,27.7
2023-05-04T02:14:43.745Z,27.7
2023-05-04T02:15:45.574Z,27.7
2023-05-04T02:16:47.649Z,27.7
2023-05-04T02:17:49.620Z,27.7
2023-05-04T02:18:51.564Z,27.7
2023-05-04T02:19:53.399Z,27.7
2023-05-04T02:20:55.328Z,27.7
2023-05-04T02:21:57.204Z,27.7
2023-05-04T02:22:59.057Z,27.8
2023-05-04T02:24:00.873Z,27.8
2023-05-04T02:25:02.649Z,27.7
2023-05-04T02:26:04.396Z,27.7
2023-05-04T02:27:06.251Z,27.7
2023-05-04T02:28:08.087Z,27.8
2023-05-04T02:29:10.059Z,27.7
2023-05-04T02:30:11.901Z,27.7
2023-05-04T02:31:13.687Z,27.7
2023-05-04T02:32:15.599Z,27.7
2023-05-04T02:33:17.454Z,27.7
2023-05-04T02:34:19.195Z,27.7
2023-05-04T02:35:20.940Z,27.7
2023-05-04T02:36:23.017Z,27.7
2023-05-04T02:37:24.745Z,27.7
2023-05-04T02:38:26.671Z,27.7
2023-05-04T02:39:28.536Z,27.7
2023-05-04T02:40:30.387Z,27.6
2023-05-04T02:41:32.249Z,27.7
2023-05-04T02:42:34.093Z,27.6
2023-05-04T02:43:35.945Z,27.6
2023-05-04T02:44:37.803Z,27.6
2023-05-04T02:45:39.763Z,27.6
2023-05-04T02:46:41.697Z,27.6
2023-05-04T02:47:43.561Z,27.6
2023-05-04T02:48:45.599Z,27.6
2023-05-04T02:49:47.463Z,27.6
2023-05-04T02:50:49.224Z,27.6
2023-05-04T02:51:50.873Z,27.6
2023-05-04T02:52:52.594Z,27.6
2023-05-04T02:53:54.362Z,27.6
2023-05-04T02:54:56.192Z,27.6
2023-05-04T02:55:58.164Z,27.7
2023-05-04T02:56:59.996Z,27.7
2023-05-04T02:58:01.799Z,27.6
2023-05-04T02:59:03.763Z,27.6
2023-05-04T03:00:06.126Z,27.6
2023-05-04T03:01:09.066Z,27.6
2023-05-04T03:02:11.293Z,27.7
2023-05-04T03:03:13.148Z,27.7
2023-05-04T03:04:15.272Z,27.8
2023-05-04T03:05:17.339Z,27.8
2023-05-04T03:06:19.217Z,27.8
2023-05-04T03:07:21.185Z,27.8
2023-05-04T03:08:22.958Z,27.7
2023-05-04T03:09:24.858Z,27.7
2023-05-04T03:10:26.713Z,27.8
2023-05-04T03:11:28.567Z,27.7
2023-05-04T03:12:30.526Z,27.8
2023-05-04T03:13:32.368Z,27.8
2023-05-04T03:14:34.320Z,28.1
2023-05-04T03:15:36.170Z,28.3
2023-05-04T03:16:38.253Z,28.5
2023-05-04T03:17:40.297Z,28.6
2023-05-04T03:18:57.511Z,28.7
2023-05-04T03:19:59.440Z,28.8
2023-05-04T03:21:01.397Z,29
2023-05-04T03:22:03.255Z,29.2
2023-05-04T03:23:05.195Z,29.3
2023-05-04T03:24:07.150Z,29.3
2023-05-04T03:25:09.113Z,29.4
2023-05-04T03:26:10.949Z,29.5
2023-05-04T03:27:12.906Z,29.6
2023-05-04T03:28:14.759Z,29.7
2023-05-04T03:29:16.605Z,29.7
2023-05-04T03:30:18.566Z,29.7
2023-05-04T03:31:20.535Z,29.7
2023-05-04T03:32:22.660Z,29.8
2023-05-04T03:33:24.597Z,29.9
2023-05-04T03:34:26.688Z,29.9
2023-05-04T03:35:28.840Z,29.9
2023-05-04T03:36:30.673Z,29.9
2023-05-04T03:37:32.423Z,30
2023-05-04T03:38:34.411Z,30.1
2023-05-04T03:39:36.327Z,30
2023-05-04T03:40:38.284Z,29.9
2023-05-04T03:41:39.990Z,30
2023-05-04T03:42:41.832Z,29.9
2023-05-04T03:43:43.524Z,30
2023-05-04T03:44:45.384Z,30.1
2023-05-04T03:45:47.344Z,30.2
2023-05-04T03:46:49.173Z,30.2
2023-05-04T03:47:51.157Z,30.2
2023-05-04T03:48:53.180Z,30.2
2023-05-04T03:49:54.986Z,30.1
2023-05-04T03:50:56.674Z,30.1
2023-05-04T03:51:58.543Z,30
2023-05-04T03:53:00.218Z,30.1
2023-05-04T03:54:02.031Z,30.1
2023-05-04T03:55:03.762Z,30
2023-05-04T03:56:05.711Z,30
2023-05-04T03:57:07.471Z,30.1
2023-05-04T03:58:09.307Z,30
2023-05-04T03:59:11.161Z,30
2023-05-04T04:00:13.025Z,29.9
2023-05-04T04:01:14.759Z,30
2023-05-04T04:02:16.728Z,30.1
2023-05-04T04:03:18.769Z,30.1
2023-05-04T04:04:21.370Z,30.2
2023-05-04T04:05:23.465Z,30.3
2023-05-04T04:06:25.342Z,30.3
2023-05-04T04:07:27.190Z,30.3
2023-05-04T04:08:29.045Z,30.4
2023-05-04T04:09:31.146Z,30.4
2023-05-04T04:10:33.051Z,30.4
2023-05-04T04:11:34.898Z,30.5
2023-05-04T04:12:36.797Z,30.6
2023-05-04T04:13:38.795Z,31
2023-05-04T04:14:40.692Z,31.1
2023-05-04T04:15:43.124Z,31.3
2023-05-04T04:16:45.126Z,31.1
2023-05-04T04:17:47.150Z,31.2
2023-05-04T04:18:49.080Z,31.1
2023-05-04T04:19:50.921Z,30.9
2023-05-04T04:20:52.566Z,31
2023-05-04T04:21:54.520Z,30.8
2023-05-04T04:22:56.475Z,30.8
2023-05-04T04:23:58.316Z,30.8
2023-05-04T04:25:00.307Z,30.9
2023-05-04T04:26:02.109Z,30.8
2023-05-04T04:27:03.948Z,30.8
2023-05-04T04:28:05.645Z,30.8
2023-05-04T04:29:07.473Z,30.8
2023-05-04T04:30:09.430Z,30.7
2023-05-04T04:31:11.447Z,30.8
2023-05-04T04:32:13.337Z,30.7
2023-05-04T04:33:15.201Z,30.7
2023-05-04T04:34:17.138Z,30.8
2023-05-04T04:35:21.711Z,30.8
2023-05-04T04:36:23.588Z,30.8
2023-05-04T04:37:25.536Z,30.8
2023-05-04T04:38:27.185Z,30.9
2023-05-04T04:39:29.164Z,31
2023-05-04T04:40:31.230Z,31
2023-05-04T04:41:33.046Z,31
2023-05-04T04:42:34.688Z,31
2023-05-04T04:43:36.548Z,30.9
2023-05-04T04:44:38.397Z,30.6
2023-05-04T04:45:40.245Z,30.4
2023-05-04T04:46:42.180Z,30.3
2023-05-04T04:47:44.115Z,30.2
2023-05-04T04:48:46.311Z,30.1
2023-05-04T04:49:48.158Z,30
2023-05-04T04:50:50.002Z,29.9
2023-05-04T04:51:51.763Z,29.9
2023-05-04T04:52:53.700Z,29.8
2023-05-04T04:53:55.653Z,29.8
2023-05-04T04:54:57.400Z,29.7
2023-05-04T04:55:59.484Z,29.7
2023-05-04T04:57:01.323Z,29.6
2023-05-04T04:58:03.032Z,29.8
2023-05-04T04:59:04.812Z,29.8
2023-05-04T05:00:07.023Z,29.6
2023-05-04T05:01:09.527Z,29.5
2023-05-04T05:02:11.471Z,29.6
2023-05-04T05:03:13.261Z,29.7
2023-05-04T05:04:15.151Z,29.7
2023-05-04T05:05:17.320Z,29.6
2023-05-04T05:06:18.979Z,29.5
2023-05-04T05:07:20.828Z,29.4
2023-05-04T05:08:22.685Z,29.4
2023-05-04T05:09:24.531Z,29.4
2023-05-04T05:10:26.477Z,29.3
2023-05-04T05:11:28.156Z,29.3
2023-05-04T05:12:30.014Z,29.4
2023-05-04T05:13:31.835Z,29.5
2023-05-04T05:14:33.592Z,29.4
2023-05-04T05:15:35.534Z,29.6
2023-05-04T05:16:37.539Z,29.6
2023-05-04T05:17:39.562Z,29.6
2023-05-04T05:18:41.397Z,29.6
2023-05-04T05:19:43.128Z,29.5
2023-05-04T05:20:44.988Z,29.5
2023-05-04T05:21:46.852Z,29.5
2023-05-04T05:22:48.684Z,29.5
2023-05-04T05:23:50.493Z,29.5
2023-05-04T05:24:52.189Z,29.5
2023-05-04T05:25:53.925Z,29.4
2023-05-04T05:26:55.822Z,29.4
2023-05-04T05:27:57.722Z,29.4
2023-05-04T05:28:59.586Z,29.4
2023-05-04T05:30:01.566Z,29.5
2023-05-04T05:31:04.132Z,29.5
2023-05-04T05:32:06.031Z,29.5
2023-05-04T05:33:08.005Z,29.5
2023-05-04T05:34:09.697Z,29.6
2023-05-04T05:35:11.404Z,29.5
2023-05-04T05:36:13.248Z,29.5
2023-05-04T05:37:15.200Z,29.6
2023-05-04T05:38:16.978Z,29.6
2023-05-04T05:39:18.804Z,29.6
2023-05-04T05:40:20.648Z,29.5
2023-05-04T05:41:22.398Z,29.7
2023-05-04T05:42:24.437Z,29.7
2023-05-04T05:43:26.195Z,29.6
2023-05-04T05:44:28.037Z,29.3
2023-05-04T05:45:29.839Z,29.3
2023-05-04T05:46:31.549Z,29.3
2023-05-04T05:47:33.519Z,29.3
2023-05-04T05:48:35.674Z,29.6
2023-05-04T05:49:37.504Z,29.4
2023-05-04T05:50:39.343Z,29.3
2023-05-04T05:51:41.197Z,29.4
2023-05-04T05:52:43.045Z,29.3
2023-05-04T05:53:44.814Z,29.3
2023-05-04T05:54:46.752Z,29.2
2023-05-04T05:55:48.601Z,29.2
2023-05-04T05:56:50.340Z,29.1
2023-05-04T05:57:52.323Z,29.2
2023-05-04T05:58:54.153Z,29.3
2023-05-04T05:59:56.125Z,29.3
2023-05-04T06:00:58.166Z,29.3
2023-05-04T06:02:00.030Z,29.4
2023-05-04T06:03:02.138Z,29.3
2023-05-04T06:04:05.049Z,29.3
2023-05-04T06:05:07.755Z,29.3
2023-05-04T06:06:09.664Z,29.2
2023-05-04T06:07:11.515Z,29.2
2023-05-04T06:08:13.358Z,29.4
2023-05-04T06:09:15.211Z,29.2
2023-05-04T06:10:17.055Z,29.1
2023-05-04T06:11:19.018Z,29.3
2023-05-04T06:12:20.956Z,29.4
2023-05-04T06:13:22.843Z,29.2
2023-05-04T06:14:24.529Z,29.3
2023-05-04T06:15:26.413Z,29.2
2023-05-04T06:16:28.297Z,29.2
2023-05-04T06:17:30.227Z,29.2
2023-05-04T06:18:32.054Z,29.1
2023-05-04T06:19:33.914Z,29.2
2023-05-04T06:20:35.865Z,29.2
2023-05-04T06:21:37.622Z,29.3
2023-05-04T06:22:39.418Z,29.5
2023-05-04T06:23:41.218Z,29.4
2023-05-04T06:24:42.902Z,29.2
2023-05-04T06:25:44.729Z,29.5
2023-05-04T06:26:46.678Z,29.5
2023-05-04T06:27:48.512Z,29.2
2023-05-04T06:28:50.406Z,29.7
2023-05-04T06:29:52.261Z,29.2
2023-05-04T06:30:53.951Z,29.2
2023-05-04T06:31:56.048Z,29.3
2023-05-04T06:32:58.179Z,29.2
2023-05-04T06:33:59.916Z,29.3
2023-05-04T06:35:01.866Z,29.3
2023-05-04T06:36:03.727Z,29.2
2023-05-04T06:37:05.612Z,29.2
2023-05-04T06:38:07.633Z,29.1
2023-05-04T06:39:10.085Z,29.2
2023-05-04T06:40:12.949Z,29
2023-05-04T06:41:15.938Z,29.1
2023-05-04T06:42:18.011Z,29
2023-05-04T06:43:19.949Z,28.9
2023-05-04T06:44:21.882Z,28.9
2023-05-04T06:45:23.661Z,28.9
2023-05-04T06:46:25.672Z,28.8
2023-05-04T06:47:28.115Z,28.9
2023-05-04T06:48:29.908Z,28.9
2023-05-04T06:49:31.754Z,28.9
2023-05-04T06:50:33.729Z,28.9
2023-05-04T06:51:35.566Z,28.9
2023-05-04T06:52:37.413Z,28.9
2023-05-04T06:53:39.157Z,28.9
2023-05-04T06:54:41.008Z,28.9
2023-05-04T06:55:42.865Z,29
2023-05-04T06:56:44.806Z,28.9
2023-05-04T06:57:46.750Z,28.8
2023-05-04T06:58:49.055Z,28.9
2023-05-04T06:59:50.804Z,28.9
2023-05-04T07:00:52.668Z,29.1
2023-05-04T07:01:54.705Z,29
2023-05-04T07:02:56.704Z,29
2023-05-04T07:03:58.805Z,28.9
2023-05-04T07:05:00.708Z,29
2023-05-04T07:06:02.379Z,29.1
2023-05-04T07:07:04.251Z,29.1
2023-05-04T07:08:06.008Z,29
2023-05-04T07:09:07.860Z,28.9
2023-05-04T07:10:09.688Z,28.8
2023-05-04T07:11:11.551Z,28.8
2023-05-04T07:12:13.499Z,28.8
2023-05-04T07:13:15.276Z,28.9
2023-05-04T07:14:17.488Z,28.8
2023-05-04T07:15:19.376Z,28.9
2023-05-04T07:16:21.337Z,28.8
2023-05-04T07:17:23.257Z,28.8
2023-05-04T07:18:25.097Z,28.9
2023-05-04T07:19:26.954Z,29
2023-05-04T07:20:28.703Z,28.9
2023-05-04T07:21:30.545Z,28.8
2023-05-04T07:22:32.320Z,28.7
2023-05-04T07:23:34.143Z,28.8
2023-05-04T07:24:36.132Z,28.9
2023-05-04T07:25:37.961Z,28.9
2023-05-04T07:26:39.920Z,28.9
2023-05-04T07:27:41.775Z,29
2023-05-04T07:28:43.993Z,29
2023-05-04T07:29:45.763Z,29
2023-05-04T07:30:47.653Z,28.9
2023-05-04T07:31:49.599Z,28.7
2023-05-04T07:32:51.646Z,28.8
2023-05-04T07:33:53.760Z,28.8
2023-05-04T07:34:55.517Z,28.8
2023-05-04T07:35:57.261Z,28.8
2023-05-04T07:36:59.323Z,28.9
2023-05-04T07:38:01.170Z,28.9
2023-05-04T07:39:03.019Z,28.9
2023-05-04T07:40:05.587Z,28.8
2023-05-04T07:41:08.662Z,28.9
2023-05-04T07:42:10.806Z,28.9
2023-05-04T07:43:12.680Z,29
2023-05-04T07:44:14.829Z,28.9
2023-05-04T07:45:16.678Z,28.8
2023-05-04T07:46:18.972Z,28.8
2023-05-04T07:47:20.726Z,28.8
2023-05-04T07:48:26.133Z,28.7
2023-05-04T07:49:28.457Z,28.6
2023-05-04T07:50:30.457Z,28.6
2023-05-04T07:51:32.302Z,28.5
2023-05-04T07:52:34.130Z,28.5
2023-05-04T07:53:35.879Z,28.6
2023-05-04T07:54:37.619Z,28.7
2023-05-04T07:55:39.486Z,28.8
2023-05-04T07:56:41.265Z,28.7
2023-05-04T07:57:42.882Z,28.6
2023-05-04T07:58:44.504Z,28.5
2023-05-04T07:59:46.382Z,28.4
2023-05-04T08:00:48.130Z,28.5
2023-05-04T08:01:50.432Z,28.5
2023-05-04T08:02:52.466Z,28.4
2023-05-04T08:03:54.504Z,28.4
2023-05-04T08:04:56.329Z,28.4
2023-05-04T08:05:58.080Z,28.4
2023-05-04T08:06:59.942Z,28.5
2023-05-04T08:08:01.772Z,28.7
2023-05-04T08:09:03.747Z,28.7
2023-05-04T08:10:05.996Z,28.9
2023-05-04T08:11:21.061Z,28.8
2023-05-04T08:12:23.438Z,28.8
2023-05-04T08:13:25.326Z,28.7
2023-05-04T08:14:27.330Z,28.6
2023-05-04T08:15:29.286Z,28.5
2023-05-04T08:16:32.163Z,28.4
2023-05-04T08:17:34.172Z,28.4
2023-05-04T08:18:36.157Z,28.4
2023-05-04T08:19:38.139Z,28.4
2023-05-04T08:20:39.968Z,28.4
2023-05-04T08:21:41.638Z,28.4
2023-05-04T08:22:43.506Z,28.3
2023-05-04T08:23:46.547Z,28.2
2023-05-04T08:24:48.501Z,28.1
2023-05-04T08:25:50.550Z,28.1
2023-05-04T08:27:08.724Z,28.2
2023-05-04T08:28:12.025Z,28.3
2023-05-04T08:29:13.924Z,28.3
2023-05-04T08:30:15.771Z,28.3
2023-05-04T08:31:17.775Z,28.6
2023-05-04T08:32:19.758Z,28.6
2023-05-04T08:33:21.861Z,28.6
2023-05-04T08:34:24.089Z,28.5
2023-05-04T08:35:26.045Z,28.4
2023-05-04T08:36:28.083Z,28.3
2023-05-04T08:37:29.829Z,28.3
2023-05-04T08:38:31.706Z,28.3
2023-05-04T08:39:33.758Z,28.2
2023-05-04T08:40:35.696Z,28.2
2023-05-04T08:41:37.557Z,28.2
2023-05-04T08:42:39.515Z,28.2
2023-05-04T08:43:41.888Z,28.1
2023-05-04T08:44:44.224Z,28.1
2023-05-04T08:45:46.961Z,28.2
2023-05-04T08:46:49.366Z,28.2
2023-05-04T08:47:51.320Z,28.3
2023-05-04T08:48:53.281Z,28.3
2023-05-04T08:49:55.015Z,28.4
2023-05-04T08:50:56.870Z,28.2
2023-05-04T08:51:58.685Z,28.2
2023-05-04T08:53:00.475Z,28.2
2023-05-04T08:54:02.279Z,28.1
2023-05-04T08:55:04.399Z,28
2023-05-04T08:56:07.010Z,28
2023-05-04T08:57:08.990Z,27.9
2023-05-04T08:58:10.941Z,27.9
2023-05-04T08:59:12.783Z,27.9
2023-05-04T09:00:14.714Z,27.8
2023-05-04T09:01:16.559Z,27.9
2023-05-04T09:02:19.154Z,27.9
2023-05-04T09:03:21.144Z,27.9
2023-05-04T09:04:23.714Z,27.9
2023-05-04T09:05:25.627Z,27.9
2023-05-04T09:06:27.359Z,27.9
2023-05-04T09:07:29.126Z,27.8
2023-05-04T09:08:31.382Z,27.9
2023-05-04T09:09:33.022Z,27.9
2023-05-04T09:10:34.759Z,28.1
2023-05-04T09:11:36.517Z,28
2023-05-04T09:12:38.584Z,28
2023-05-04T09:13:40.744Z,28.1
2023-05-04T09:14:42.590Z,28.1
2023-05-04T09:15:44.412Z,28
2023-05-04T09:16:46.246Z,27.9
2023-05-04T09:17:58.290Z,27.9
2023-05-04T09:19:00.540Z,27.8
2023-05-04T09:20:02.509Z,27.8
2023-05-04T09:21:04.332Z,27.7
2023-05-04T09:22:06.086Z,27.6
2023-05-04T09:23:07.937Z,27.7
2023-05-04T09:24:09.985Z,27.7
2023-05-04T09:25:11.840Z,27.7
2023-05-04T09:26:13.582Z,27.7
2023-05-04T09:27:15.449Z,27.6
2023-05-04T09:28:17.259Z,27.5
2023-05-04T09:29:18.938Z,27.5
2023-05-04T09:30:20.781Z,27.4
2023-05-04T09:31:22.671Z,27.3
2023-05-04T09:32:24.906Z,27.3
2023-05-04T09:33:27.041Z,27.4
2023-05-04T09:34:29.532Z,27.3
2023-05-04T09:35:34.609Z,27.3
2023-05-04T09:36:36.395Z,27.3
2023-05-04T09:37:38.133Z,27.5
2023-05-04T09:38:39.934Z,27.5
2023-05-04T09:39:41.736Z,27.5
2023-05-04T09:40:43.684Z,27.6
2023-05-04T09:41:45.534Z,27.7
2023-05-04T09:42:47.382Z,27.7
2023-05-04T09:43:49.230Z,27.6
2023-05-04T09:44:51.048Z,27.7
2023-05-04T09:45:52.825Z,27.6
2023-05-04T09:46:54.874Z,27.5
2023-05-04T09:47:56.782Z,27.4
2023-05-04T09:48:58.895Z,27.4
2023-05-04T09:50:00.673Z,27.6
2023-05-04T09:51:02.818Z,27.5
2023-05-04T09:52:05.276Z,27.6
2023-05-04T09:53:07.122Z,27.6
2023-05-04T09:54:08.984Z,27.6
2023-05-04T09:55:11.020Z,27.5
2023-05-04T09:56:12.626Z,27.4
2023-05-04T09:57:14.724Z,27.3
2023-05-04T09:58:16.608Z,27.3
2023-05-04T09:59:18.412Z,27.3
2023-05-04T10:00:20.556Z,27.3
2023-05-04T10:01:22.541Z,27.4
2023-05-04T10:02:24.888Z,27.3
2023-05-04T10:03:27.374Z,27.2
2023-05-04T10:04:29.360Z,27.2
2023-05-04T10:05:31.172Z,27.1
2023-05-04T10:06:33.092Z,27
2023-05-04T10:07:34.970Z,27
2023-05-04T10:08:36.911Z,27
2023-05-04T10:09:38.657Z,27.1
2023-05-04T10:10:40.527Z,27.1
2023-05-04T10:11:42.351Z,27.3
2023-05-04T10:12:44.207Z,27.4
2023-05-04T10:13:46.161Z,27.4
2023-05-04T10:14:47.899Z,27.3
2023-05-04T10:15:50.194Z,27.5
2023-05-04T10:16:52.132Z,27.5
2023-05-04T10:17:54.433Z,27.6
2023-05-04T10:18:56.550Z,27.5
2023-05-04T10:19:58.606Z,27.3
2023-05-04T10:21:00.566Z,27.3
2023-05-04T10:22:02.638Z,27.2
2023-05-04T10:23:04.554Z,27.2
2023-05-04T10:24:06.513Z,27.3
2023-05-04T10:25:08.352Z,27.8
2023-05-04T10:26:10.636Z,27.5
2023-05-04T10:27:12.784Z,27.4
2023-05-04T10:28:14.623Z,27.3
2023-05-04T10:29:16.686Z,27.2
2023-05-04T10:30:18.832Z,27.2
2023-05-04T10:31:20.832Z,27.3
2023-05-04T10:32:23.081Z,27.4
2023-05-04T10:33:25.003Z,27.3
2023-05-04T10:34:27.159Z,27.5
2023-05-04T10:35:29.020Z,27.6
2023-05-04T10:36:30.851Z,27.8
2023-05-04T10:37:32.729Z,27.6
2023-05-04T10:38:34.551Z,27.6
2023-05-04T10:39:36.642Z,27.6
2023-05-04T10:40:38.460Z,27.4
2023-05-04T10:41:40.268Z,27.4
2023-05-04T10:42:42.061Z,27.5
2023-05-04T10:43:44.018Z,27.5
2023-05-04T10:44:45.837Z,27.4
2023-05-04T10:45:47.827Z,27.4
2023-05-04T10:46:49.862Z,27.5
2023-05-04T10:47:51.849Z,27.5
2023-05-04T10:48:54.560Z,27.4
2023-05-04T10:49:56.437Z,27.5
2023-05-04T10:50:58.397Z,27.5
2023-05-04T10:52:00.253Z,27.4
2023-05-04T10:53:02.249Z,27.5
2023-05-04T10:54:04.562Z,27.7
2023-05-04T10:55:06.801Z,27.5
2023-05-04T10:56:09.193Z,27.6
2023-05-04T10:57:11.130Z,27.8
2023-05-04T10:58:13.089Z,27.7
2023-05-04T10:59:14.841Z,27.8
2023-05-04T11:00:16.702Z,27.7
2023-05-04T11:01:18.537Z,27.6
2023-05-04T11:02:20.519Z,27.7
2023-05-04T11:03:22.986Z,27.7
2023-05-04T11:04:25.211Z,27.8
2023-05-04T11:05:27.006Z,27.8
2023-05-04T11:06:29.136Z,27.9
2023-05-04T11:07:31.263Z,27.8
2023-05-04T11:08:33.072Z,27.8
2023-05-04T11:09:34.965Z,27.8
2023-05-04T11:10:37.337Z,27.9
2023-05-04T11:11:39.276Z,27.9
2023-05-04T11:12:41.237Z,27.9
2023-05-04T11:13:43.185Z,28
2023-05-04T11:14:44.946Z,28.1
2023-05-04T11:15:46.689Z,28.1
2023-05-04T11:16:48.642Z,28
2023-05-04T11:17:50.724Z,28
2023-05-04T11:18:52.856Z,28
2023-05-04T11:19:54.597Z,27.9
2023-05-04T11:20:56.517Z,27.9
2023-05-04T11:21:58.209Z,28.1
2023-05-04T11:23:00.128Z,28.1
2023-05-04T11:24:02.044Z,28.2
2023-05-04T11:25:04.431Z,28.1
2023-05-04T11:26:08.046Z,28.1
2023-05-04T11:27:11.125Z,28.1
2023-05-04T11:28:15.011Z,28.2
2023-05-04T11:29:16.910Z,28.2
2023-05-04T11:30:18.829Z,28.1
2023-05-04T11:31:20.814Z,28.1
2023-05-04T11:32:23.094Z,28.3
2023-05-04T11:33:25.309Z,28.5
2023-05-04T11:34:27.159Z,28.4
2023-05-04T11:35:29.008Z,28.4
2023-05-04T11:36:30.849Z,28.3
2023-05-04T11:37:32.659Z,28.3
2023-05-04T11:38:34.568Z,28.4
2023-05-04T11:39:36.630Z,28.4
2023-05-04T11:40:41.729Z,28.5
2023-05-04T11:41:43.575Z,28.4
2023-05-04T11:42:45.425Z,28.4
2023-05-04T11:43:47.288Z,28.5
2023-05-04T11:44:49.518Z,28.5
2023-05-04T11:45:51.201Z,28.4
2023-05-04T11:46:53.288Z,28.4
2023-05-04T11:47:55.646Z,28.4
2023-05-04T11:48:57.867Z,28.4
2023-05-04T11:49:59.720Z,28.4
2023-05-04T11:51:01.636Z,28.5
2023-05-04T11:52:03.700Z,28.4
2023-05-04T11:53:05.557Z,28.3
2023-05-04T11:54:07.405Z,28.3
2023-05-04T11:55:09.830Z,28.4
2023-05-04T11:56:11.629Z,28.4
2023-05-04T11:57:13.333Z,28.5
2023-05-04T11:58:15.230Z,28.6
2023-05-04T11:59:16.959Z,28.6
2023-05-04T12:00:18.931Z,28.8
2023-05-04T12:01:20.749Z,29
2023-05-04T12:02:22.565Z,28.9
2023-05-04T12:03:35.842Z,28.7
2023-05-04T12:04:56.067Z,28.5
2023-05-04T12:05:58.199Z,28.5
2023-05-04T12:07:02.074Z,28.5
2023-05-04T12:08:03.934Z,28.6
2023-05-04T12:09:06.280Z,28.6
2023-05-04T12:10:08.220Z,28.7
2023-05-04T12:11:10.241Z,28.7
2023-05-04T12:12:12.034Z,28.7
2023-05-04T12:13:13.951Z,28.8
2023-05-04T12:14:16.168Z,28.8
2023-05-04T12:15:18.018Z,28.8
2023-05-04T12:16:19.883Z,28.9
2023-05-04T12:17:22.349Z,28.9
2023-05-04T12:18:24.267Z,29
2023-05-04T12:19:26.113Z,28.9
2023-05-04T12:20:27.854Z,28.9
2023-05-04T12:21:29.843Z,28.9
2023-05-04T12:22:31.522Z,28.9
2023-05-04T12:23:33.478Z,28.9
2023-05-04T12:24:35.470Z,28.8
2023-05-04T12:25:57.995Z,28.9
2023-05-04T12:27:00.451Z,28.9
2023-05-04T12:28:02.213Z,28.9
2023-05-04T12:29:03.930Z,29
2023-05-04T12:30:05.747Z,29.2
2023-05-04T12:31:07.583Z,29.2
2023-05-04T12:32:09.642Z,29.1
2023-05-04T12:33:11.675Z,29.1
2023-05-04T12:34:13.411Z,29.1
2023-05-04T12:35:15.061Z,29.1
2023-05-04T12:36:16.880Z,29.1
2023-05-04T12:37:18.758Z,29.1
2023-05-04T12:38:20.639Z,29.1
2023-05-04T12:39:22.337Z,29.1
2023-05-04T12:40:29.172Z,29.1
2023-05-04T12:41:31.184Z,29.1
2023-05-04T12:42:33.267Z,29.1
2023-05-04T12:43:35.180Z,29.1
2023-05-04T12:44:36.810Z,29.1
2023-05-04T12:45:38.776Z,29.1
2023-05-04T12:46:40.509Z,29.1
2023-05-04T12:47:42.405Z,29.1
2023-05-04T12:48:44.359Z,29.1
2023-05-04T12:49:46.203Z,29.2
2023-05-04T12:50:48.158Z,29.2
2023-05-04T12:51:49.932Z,29.1
2023-05-04T12:52:51.850Z,29.2
2023-05-04T12:53:53.921Z,29.2
2023-05-04T12:54:55.756Z,29.2
2023-05-04T12:55:57.932Z,29.3
2023-05-04T12:56:59.791Z,29.3
2023-05-04T12:58:01.773Z,29.3
2023-05-04T12:59:03.698Z,29.4
2023-05-04T13:00:06.005Z,29.4
2023-05-04T13:01:07.899Z,29.4
2023-05-04T13:02:09.853Z,29.5
2023-05-04T13:03:11.997Z,29.5
2023-05-04T13:04:14.754Z,29.5
2023-05-04T13:05:16.488Z,29.5
2023-05-04T13:06:18.249Z,29.5
2023-05-04T13:07:19.995Z,29.5
2023-05-04T13:08:21.743Z,29.5
2023-05-04T13:09:23.598Z,29.5
2023-05-04T13:10:25.479Z,29.5
2023-05-04T13:11:27.430Z,29.7
2023-05-04T13:12:29.377Z,29.6
2023-05-04T13:13:31.321Z,29.6
2023-05-04T13:14:40.166Z,29.6
2023-05-04T13:15:42.170Z,29.6
2023-05-04T13:16:44.337Z,29.5
2023-05-04T13:17:46.346Z,29.5
2023-05-04T13:18:48.337Z,29.6
2023-05-04T13:19:50.173Z,29.7
2023-05-04T13:20:52.027Z,29.7
2023-05-04T13:21:53.774Z,29.7
2023-05-04T13:22:58.703Z,29.8
2023-05-04T13:24:00.665Z,29.9
2023-05-04T13:25:02.393Z,29.9
2023-05-04T13:26:04.178Z,29.9
2023-05-04T13:27:05.926Z,29.9
2023-05-04T13:28:07.744Z,29.9
2023-05-04T13:29:09.645Z,29.9
2023-05-04T13:30:11.683Z,29.9
2023-05-04T13:31:13.663Z,29.9
2023-05-04T13:32:15.877Z,29.9
2023-05-04T13:33:30.646Z,29.9
2023-05-04T13:34:32.984Z,29.9
2023-05-04T13:35:34.931Z,30
2023-05-04T13:36:36.881Z,30
2023-05-04T13:37:38.724Z,30.1
2023-05-04T13:38:40.591Z,30.1
2023-05-04T13:39:42.386Z,30.1
2023-05-04T13:40:44.180Z,30
2023-05-04T13:41:46.041Z,30
2023-05-04T13:42:48.503Z,30
2023-05-04T13:43:50.484Z,30.1
2023-05-04T13:44:53.162Z,30.1
2023-05-04T13:45:54.963Z,30.1
2023-05-04T13:46:56.911Z,30
2023-05-04T13:47:59.270Z,30
2023-05-04T13:49:01.771Z,30
2023-05-04T13:50:03.570Z,30.1
2023-05-04T13:51:05.448Z,30.1